Time;durP1;ratioP1;P1;durP2;ratioP2;P2;SDS_P1;SDS_P2;PMS_P1;PMS_P2;Temp;Humidity;BMP_temperature;BMP_pressure;BME280_temperature;BME280_humidity;BME280_pressure;Samples;Min_cycle;Max_cycle;Signal;HPM_P1;HPM_P2
2023/05/05 00:01:00;;;;;;;11.20;8.15;;;;;;;;;;5024038;28;20414;-82
2023/05/05 00:03:27;;;;;;;9.00;7.70;;;;;;;;;;5031138;28;20417;-82
2023/05/05 00:05:53;;;;;;;8.60;7.70;;;;;;;;;;5030987;28;20465;-83
2023/05/05 00:08:20;;;;;;;10.70;8.20;;;;;;;;;;5031056;28;20406;-83
2023/05/05 00:10:50;;;;;;;9.40;7.82;;;;;;;;;;5030730;28;20422;-83
2023/05/05 00:13:17;;;;;;;10.30;8.25;;;;;;;;;;5029558;28;20421;-83
2023/05/05 00:15:46;;;;;;;11.82;8.15;;;;;;;;;;5013364;28;20442;-83
2023/05/05 00:18:14;;;;;;;8.87;7.63;;;;;;;;;;5010748;28;20423;-83
2023/05/05 00:20:40;;;;;;;10.23;7.97;;;;;;;;;;5028337;28;20448;-83
2023/05/05 00:23:06;;;;;;;8.73;7.83;;;;;;;;;;5034230;28;20405;-83
2023/05/05 00:25:32;;;;;;;10.85;8.07;;;;;;;;;;5034320;28;20437;-83
2023/05/05 00:27:59;;;;;;;11.27;7.90;;;;;;;;;;5035016;28;20467;-83
2023/05/05 00:30:29;;;;;;;9.02;8.05;;;;;;;;;;5034975;28;20422;-83
2023/05/05 00:32:56;;;;;;;9.77;8.20;;;;;;;;;;5034610;28;20417;-83
2023/05/05 00:35:22;;;;;;;9.10;8.20;;;;;;;;;;5034755;28;20432;-83
2023/05/05 00:37:48;;;;;;;8.57;7.57;;;;;;;;;;5034688;28;20468;-84
2023/05/05 00:40:14;;;;;;;9.00;7.85;;;;;;;;;;5035115;28;20520;-84
2023/05/05 00:42:41;;;;;;;9.50;7.78;;;;;;;;;;5034392;28;20409;-84
2023/05/05 00:45:08;;;;;;;10.88;7.72;;;;;;;;;;5034587;28;20414;-84
2023/05/05 00:47:37;;;;;;;9.70;7.78;;;;;;;;;;5034315;28;20413;-84
2023/05/05 00:50:09;;;;;;;10.93;8.13;;;;;;;;;;5034723;28;20418;-84
2023/05/05 00:52:36;;;;;;;10.45;7.75;;;;;;;;;;5034517;28;20428;-85
2023/05/05 00:55:03;;;;;;;9.05;7.95;;;;;;;;;;5034817;28;20429;-85
2023/05/05 00:57:29;;;;;;;9.52;7.75;;;;;;;;;;5018459;28;20440;-84
2023/05/05 00:59:56;;;;;;;9.10;7.80;;;;;;;;;;5034781;28;20402;-85
2023/05/05 01:02:22;;;;;;;11.00;8.03;;;;;;;;;;5034731;28;20545;-85
2023/05/05 01:04:48;;;;;;;10.00;7.80;;;;;;;;;;5034608;28;20410;-85
2023/05/05 01:07:24;;;;;;;9.00;8.10;;;;;;;;;;5034421;28;20425;-85
2023/05/05 01:10:12;;;;;;;10.37;8.30;;;;;;;;;;5016906;28;20485;-84
2023/05/05 01:12:38;;;;;;;9.55;8.05;;;;;;;;;;5033988;28;20504;-85
2023/05/05 01:15:16;;;;;;;9.55;8.25;;;;;;;;;;5033833;28;20520;-85
2023/05/05 01:17:45;;;;;;;9.88;8.38;;;;;;;;;;5034163;28;20432;-84
2023/05/05 01:20:23;;;;;;;9.50;8.35;;;;;;;;;;5034407;28;20406;-85
2023/05/05 01:22:52;;;;;;;10.03;8.80;;;;;;;;;;5033839;28;20417;-84
2023/05/05 01:25:21;;;;;;;10.70;8.52;;;;;;;;;;5033646;28;20410;-84
2023/05/05 01:28:07;;;;;;;10.17;8.83;;;;;;;;;;5033832;28;20483;-85
2023/05/05 01:30:42;;;;;;;10.32;8.43;;;;;;;;;;5033839;28;20414;-85
2023/05/05 01:33:09;;;;;;;11.25;8.15;;;;;;;;;;5033000;28;20417;-84
2023/05/05 01:35:46;;;;;;;10.25;8.63;;;;;;;;;;5033791;28;20437;-84
2023/05/05 01:38:14;;;;;;;12.55;8.85;;;;;;;;;;5033290;28;20437;-84
2023/05/05 01:40:43;;;;;;;9.73;8.27;;;;;;;;;;5033522;28;20422;-85
2023/05/05 01:43:10;;;;;;;12.32;9.27;;;;;;;;;;5031702;28;20493;-85
2023/05/05 01:45:38;;;;;;;10.40;9.40;;;;;;;;;;5033586;28;20425;-84
2023/05/05 01:48:05;;;;;;;11.38;9.85;;;;;;;;;;5033311;28;20421;-84
2023/05/05 01:50:32;;;;;;;11.10;9.95;;;;;;;;;;5033418;28;20421;-85
2023/05/05 01:52:58;;;;;;;13.05;10.52;;;;;;;;;;5033386;28;20410;-85
2023/05/05 01:55:25;;;;;;;12.30;11.00;;;;;;;;;;5017119;28;20449;-85
2023/05/05 01:57:52;;;;;;;13.43;11.52;;;;;;;;;;5016695;28;20428;-85
2023/05/05 02:00:19;;;;;;;14.32;11.55;;;;;;;;;;5021752;28;20403;-85
2023/05/05 02:02:46;;;;;;;14.68;12.07;;;;;;;;;;5031315;28;20419;-85
2023/05/05 02:05:13;;;;;;;15.37;12.63;;;;;;;;;;5047068;28;20499;-85
2023/05/05 02:07:39;;;;;;;14.35;12.90;;;;;;;;;;5030985;28;20418;-85
2023/05/05 02:10:06;;;;;;;14.52;12.95;;;;;;;;;;5032991;28;20453;-85
2023/05/05 02:12:33;;;;;;;14.38;12.90;;;;;;;;;;5031809;28;20492;-85
2023/05/05 02:15:01;;;;;;;15.75;13.30;;;;;;;;;;5021001;28;20442;-85
2023/05/05 02:17:29;;;;;;;14.95;13.48;;;;;;;;;;5030800;28;20419;-85
2023/05/05 02:19:55;;;;;;;14.90;13.50;;;;;;;;;;5029780;28;20557;-85
2023/05/05 02:22:21;;;;;;;15.17;13.63;;;;;;;;;;5033413;28;20505;-85
2023/05/05 02:24:48;;;;;;;15.68;13.55;;;;;;;;;;5015995;28;20418;-84
2023/05/05 02:27:16;;;;;;;15.40;13.90;;;;;;;;;;5032207;28;20427;-84
2023/05/05 02:29:46;;;;;;;15.70;13.47;;;;;;;;;;5029752;28;20471;-84
2023/05/05 02:32:32;;;;;;;14.90;13.60;;;;;;;;;;5031902;28;20470;-85
2023/05/05 02:35:01;;;;;;;14.48;13.20;;;;;;;;;;5031531;28;20436;-84
2023/05/05 02:37:29;;;;;;;13.25;11.95;;;;;;;;;;5032149;28;20448;-85
2023/05/05 02:40:07;;;;;;;13.93;12.63;;;;;;;;;;5032188;28;20497;-84
2023/05/05 02:42:40;;;;;;;12.30;11.10;;;;;;;;;;5030691;28;20444;-84
2023/05/05 02:45:15;;;;;;;12.70;11.40;;;;;;;;;;5026626;28;20524;-84
2023/05/05 02:47:41;;;;;;;13.18;11.90;;;;;;;;;;5032070;28;20419;-85
2023/05/05 02:50:07;;;;;;;12.70;11.40;;;;;;;;;;5032007;28;20425;-84
2023/05/05 02:52:34;;;;;;;12.52;11.13;;;;;;;;;;5031648;28;20421;-84
2023/05/05 02:55:01;;;;;;;12.18;10.95;;;;;;;;;;5031474;28;20468;-84
2023/05/05 02:57:50;;;;;;;12.00;10.90;;;;;;;;;;5032009;28;20413;-85
2023/05/05 03:00:22;;;;;;;12.32;11.05;;;;;;;;;;5002717;28;20481;-85
2023/05/05 03:02:48;;;;;;;12.05;10.85;;;;;;;;;;5029217;28;20414;-84
2023/05/05 03:05:24;;;;;;;12.43;11.20;;;;;;;;;;5031909;28;20506;-85
2023/05/05 03:07:54;;;;;;;12.10;10.98;;;;;;;;;;5029158;28;20418;-85
2023/05/05 03:10:21;;;;;;;12.45;11.25;;;;;;;;;;5031625;28;20413;-85
2023/05/05 03:12:47;;;;;;;12.00;10.90;;;;;;;;;;5031090;28;20430;-85
2023/05/05 03:15:13;;;;;;;12.45;11.25;;;;;;;;;;5031385;28;20483;-85
2023/05/05 03:17:41;;;;;;;12.60;11.40;;;;;;;;;;5031486;28;20413;-84
2023/05/05 03:20:07;;;;;;;12.70;11.50;;;;;;;;;;5031852;28;20413;-84
2023/05/05 03:22:37;;;;;;;13.18;11.98;;;;;;;;;;5015615;28;20414;-85
2023/05/05 03:25:03;;;;;;;14.15;12.85;;;;;;;;;;5031793;28;20416;-84
2023/05/05 03:27:30;;;;;;;14.60;13.27;;;;;;;;;;5031599;28;20515;-84
2023/05/05 03:29:56;;;;;;;14.70;13.30;;;;;;;;;;5031771;28;20421;-84
2023/05/05 03:32:22;;;;;;;16.08;14.55;;;;;;;;;;5031492;28;20424;-85
2023/05/05 03:34:49;;;;;;;16.17;14.68;;;;;;;;;;5031432;28;20429;-85
2023/05/05 03:37:15;;;;;;;16.67;15.05;;;;;;;;;;5015042;28;20442;-84
2023/05/05 03:39:41;;;;;;;16.80;15.20;;;;;;;;;;5031435;28;20413;-84
2023/05/05 03:42:07;;;;;;;17.87;16.10;;;;;;;;;;5031393;28;20414;-85
2023/05/05 03:44:33;;;;;;;18.17;16.42;;;;;;;;;;5012046;28;20454;-85
2023/05/05 03:46:59;;;;;;;18.38;16.75;;;;;;;;;;5019428;28;20485;-84
2023/05/05 03:49:25;;;;;;;21.30;19.25;;;;;;;;;;5019978;28;20447;-85
2023/05/05 03:51:52;;;;;;;19.85;17.92;;;;;;;;;;5010939;28;20427;-85
2023/05/05 03:54:18;;;;;;;20.63;18.52;;;;;;;;;;5029364;28;20431;-84
2023/05/05 03:56:44;;;;;;;22.05;19.88;;;;;;;;;;5025805;28;20422;-85
2023/05/05 03:59:10;;;;;;;22.45;20.30;;;;;;;;;;5007167;28;20478;-84
2023/05/05 04:01:36;;;;;;;23.80;21.60;;;;;;;;;;5015773;28;20427;-84
2023/05/05 04:04:02;;;;;;;23.52;21.30;;;;;;;;;;5037464;28;20454;-84
2023/05/05 04:06:28;;;;;;;23.98;21.55;;;;;;;;;;5024649;28;20411;-84
2023/05/05 04:08:54;;;;;;;24.52;22.02;;;;;;;;;;5043904;28;20410;-85
2023/05/05 04:11:20;;;;;;;24.02;21.70;;;;;;;;;;5017149;28;20502;-85
2023/05/05 04:13:48;;;;;;;23.98;21.65;;;;;;;;;;5030163;28;20445;-85
2023/05/05 04:16:14;;;;;;;25.75;23.45;;;;;;;;;;5020618;28;20430;-84
2023/05/05 04:18:41;;;;;;;26.02;23.42;;;;;;;;;;5045017;28;20543;-85
2023/05/05 04:21:09;;;;;;;25.27;22.87;;;;;;;;;;5017638;28;20421;-85
2023/05/05 04:23:35;;;;;;;24.13;21.83;;;;;;;;;;5032358;28;20441;-85
2023/05/05 04:26:01;;;;;;;25.48;22.92;;;;;;;;;;5015003;28;20427;-85
2023/05/05 04:28:27;;;;;;;26.20;23.77;;;;;;;;;;5040313;28;20428;-84
2023/05/05 04:30:53;;;;;;;26.75;24.02;;;;;;;;;;5029268;28;20413;-84
2023/05/05 04:33:19;;;;;;;26.30;23.77;;;;;;;;;;5018578;28;20417;-84
2023/05/05 04:35:45;;;;;;;24.90;22.58;;;;;;;;;;5034963;28;20429;-84
2023/05/05 04:38:11;;;;;;;26.67;24.10;;;;;;;;;;5018296;28;20437;-84
2023/05/05 04:40:39;;;;;;;25.27;23.03;;;;;;;;;;5034945;28;20401;-84
2023/05/05 04:43:06;;;;;;;27.05;24.35;;;;;;;;;;5034091;28;20492;-84
2023/05/05 04:45:32;;;;;;;26.93;24.17;;;;;;;;;;5008519;28;20500;-84
2023/05/05 04:47:59;;;;;;;26.15;23.75;;;;;;;;;;5000218;28;20423;-85
2023/05/05 04:50:25;;;;;;;25.65;23.05;;;;;;;;;;5010002;28;20422;-84
2023/05/05 04:52:51;;;;;;;26.43;23.83;;;;;;;;;;5021161;28;20429;-84
2023/05/05 04:55:17;;;;;;;25.95;23.42;;;;;;;;;;5016842;28;20441;-84
2023/05/05 04:57:43;;;;;;;24.33;21.93;;;;;;;;;;5024762;28;20571;-84
2023/05/05 05:00:09;;;;;;;24.83;22.25;;;;;;;;;;5040566;28;20440;-84
2023/05/05 05:02:36;;;;;;;24.00;21.27;;;;;;;;;;5026319;28;20415;-84
2023/05/05 05:05:02;;;;;;;25.85;21.77;;;;;;;;;;5035823;28;20423;-84
2023/05/05 05:07:28;;;;;;;22.65;20.25;;;;;;;;;;5017225;28;20475;-84
2023/05/05 05:09:54;;;;;;;22.08;19.73;;;;;;;;;;5007727;28;20421;-84
2023/05/05 05:12:20;;;;;;;21.80;19.77;;;;;;;;;;5018066;28;20426;-84
2023/05/05 05:14:46;;;;;;;20.70;18.40;;;;;;;;;;5034493;28;20471;-84
2023/05/05 05:17:12;;;;;;;21.23;19.02;;;;;;;;;;5015809;28;20423;-85
2023/05/05 05:19:38;;;;;;;20.07;16.30;;;;;;;;;;5032199;28;20174;-84
2023/05/05 05:22:04;;;;;;;21.70;17.23;;;;;;;;;;5019671;28;20188;-85
2023/05/05 05:24:31;;;;;;;20.58;18.50;;;;;;;;;;5016085;28;20433;-85
2023/05/05 05:26:57;;;;;;;20.48;18.38;;;;;;;;;;5004229;28;20423;-85
2023/05/05 05:29:23;;;;;;;19.60;17.70;;;;;;;;;;5017593;28;20462;-85
2023/05/05 05:31:49;;;;;;;19.90;17.52;;;;;;;;;;5016947;28;20452;-85
2023/05/05 05:34:15;;;;;;;17.08;15.48;;;;;;;;;;5032870;28;20417;-85
2023/05/05 05:36:41;;;;;;;17.27;15.57;;;;;;;;;;5031780;28;20436;-84
2023/05/05 05:39:07;;;;;;;16.83;15.10;;;;;;;;;;5033532;28;20421;-84
2023/05/05 05:41:33;;;;;;;16.95;15.32;;;;;;;;;;5016987;28;20405;-84
2023/05/05 05:43:59;;;;;;;16.20;14.63;;;;;;;;;;5016820;28;20409;-84
2023/05/05 05:46:25;;;;;;;17.17;14.85;;;;;;;;;;5017060;28;20409;-84
2023/05/05 05:48:51;;;;;;;15.07;13.65;;;;;;;;;;5017239;28;20438;-82
2023/05/05 05:51:17;;;;;;;14.90;13.45;;;;;;;;;;5017572;28;20402;-83
2023/05/05 05:53:43;;;;;;;14.60;13.10;;;;;;;;;;5033667;28;20459;-82
2023/05/05 05:56:10;;;;;;;14.87;12.90;;;;;;;;;;5033354;28;20429;-82
2023/05/05 05:58:36;;;;;;;16.33;12.40;;;;;;;;;;5014435;28;20504;-83
2023/05/05 06:01:03;;;;;;;13.90;12.50;;;;;;;;;;5033586;28;20444;-83
2023/05/05 06:03:29;;;;;;;13.48;12.18;;;;;;;;;;5031912;28;20456;-84
2023/05/05 06:05:57;;;;;;;13.02;11.63;;;;;;;;;;5033097;28;20449;-84
2023/05/05 06:08:23;;;;;;;13.68;11.60;;;;;;;;;;5013776;28;20458;-84
2023/05/05 06:10:49;;;;;;;13.13;11.73;;;;;;;;;;5007879;28;20490;-84
2023/05/05 06:13:16;;;;;;;12.63;11.32;;;;;;;;;;5014074;28;20554;-83
2023/05/05 06:15:42;;;;;;;14.77;11.65;;;;;;;;;;5014035;28;20442;-83
2023/05/05 06:18:08;;;;;;;13.52;11.48;;;;;;;;;;5013370;28;20447;-84
2023/05/05 06:20:34;;;;;;;14.67;12.13;;;;;;;;;;5013259;28;20430;-84
2023/05/05 06:23:00;;;;;;;12.63;11.25;;;;;;;;;;5013210;28;20407;-87
2023/05/05 06:25:26;;;;;;;13.35;11.23;;;;;;;;;;5029638;28;20413;-86
2023/05/05 06:27:52;;;;;;;18.07;11.67;;;;;;;;;;5029843;28;20407;-86
2023/05/05 06:30:18;;;;;;;15.27;11.57;;;;;;;;;;5013467;28;20417;-85
2023/05/05 06:32:44;;;;;;;12.75;11.43;;;;;;;;;;5031001;28;20430;-84
2023/05/05 06:35:10;;;;;;;13.52;11.48;;;;;;;;;;5041343;28;20480;-84
2023/05/05 06:37:36;;;;;;;13.02;11.73;;;;;;;;;;5016218;28;20445;-85
2023/05/05 06:40:03;;;;;;;13.52;11.70;;;;;;;;;;5032312;28;20412;-85
2023/05/05 06:42:30;;;;;;;14.45;11.57;;;;;;;;;;5016352;28;20496;-85
2023/05/05 06:44:57;;;;;;;13.43;11.50;;;;;;;;;;5032636;28;20464;-85
2023/05/05 06:47:23;;;;;;;13.60;11.82;;;;;;;;;;5016431;28;20413;-85
2023/05/05 06:49:49;;;;;;;13.10;11.18;;;;;;;;;;5016186;28;20452;-85
2023/05/05 06:52:15;;;;;;;14.80;11.55;;;;;;;;;;5015922;28;20420;-85
2023/05/05 06:54:41;;;;;;;12.68;11.15;;;;;;;;;;5015909;28;20429;-85
2023/05/05 06:57:07;;;;;;;12.60;11.30;;;;;;;;;;5032348;28;20412;-84
2023/05/05 06:59:33;;;;;;;13.90;11.73;;;;;;;;;;5031533;28;20410;-84
2023/05/05 07:01:59;;;;;;;13.80;11.40;;;;;;;;;;5015011;28;20481;-85
2023/05/05 07:04:25;;;;;;;12.43;10.50;;;;;;;;;;5032569;28;20420;-85
2023/05/05 07:06:51;;;;;;;12.23;10.60;;;;;;;;;;5032177;28;20409;-85
2023/05/05 07:09:19;;;;;;;12.20;10.90;;;;;;;;;;5015897;28;20502;-85
2023/05/05 07:11:45;;;;;;;12.13;10.82;;;;;;;;;;5032323;28;20416;-84
2023/05/05 07:14:11;;;;;;;12.43;10.38;;;;;;;;;;5012406;28;20430;-84
2023/05/05 07:16:38;;;;;;;11.90;9.85;;;;;;;;;;5013348;28;20458;-84
2023/05/05 07:19:06;;;;;;;13.07;9.82;;;;;;;;;;5054249;28;20404;-85
2023/05/05 07:21:36;;;;;;;13.43;9.73;;;;;;;;;;5012315;28;20410;-85
2023/05/05 07:24:02;;;;;;;10.67;9.17;;;;;;;;;;5016013;28;20442;-85
2023/05/05 07:26:28;;;;;;;12.77;10.10;;;;;;;;;;5028903;28;20429;-84
2023/05/05 07:28:56;;;;;;;12.77;10.35;;;;;;;;;;5028806;28;20426;-84
2023/05/05 07:31:22;;;;;;;11.43;9.30;;;;;;;;;;5012295;28;20403;-84
2023/05/05 07:33:48;;;;;;;13.65;10.10;;;;;;;;;;5031634;28;20420;-84
2023/05/05 07:36:14;;;;;;;12.15;10.35;;;;;;;;;;5030866;28;20425;-84
2023/05/05 07:38:40;;;;;;;13.60;10.45;;;;;;;;;;5034824;28;20412;-84
2023/05/05 07:41:07;;;;;;;14.85;10.90;;;;;;;;;;5017900;28;20419;-84
2023/05/05 07:43:35;;;;;;;12.55;10.45;;;;;;;;;;5018411;28;20416;-84
2023/05/05 07:46:01;;;;;;;12.55;9.75;;;;;;;;;;5002458;28;20429;-81
2023/05/05 07:48:27;;;;;;;12.20;10.18;;;;;;;;;;4998860;28;20519;-81
2023/05/05 07:50:53;;;;;;;13.97;10.77;;;;;;;;;;5015297;28;20428;-81
2023/05/05 07:53:20;;;;;;;13.02;11.35;;;;;;;;;;5032900;28;20398;-81
2023/05/05 07:55:46;;;;;;;13.98;11.38;;;;;;;;;;4998996;28;20426;-82
2023/05/05 07:58:12;;;;;;;14.73;11.35;;;;;;;;;;4999038;28;20410;-82
2023/05/05 08:00:38;;;;;;;14.18;11.90;;;;;;;;;;5015173;28;20436;-81
2023/05/05 08:03:04;;;;;;;13.70;11.40;;;;;;;;;;4998773;28;20414;-82
2023/05/05 08:05:30;;;;;;;10.75;9.23;;;;;;;;;;5015099;28;20414;-82
2023/05/05 08:07:56;;;;;;;10.80;8.70;;;;;;;;;;4998859;28;20417;-81
2023/05/05 08:10:22;;;;;;;11.30;8.43;;;;;;;;;;4999042;28;20413;-81
2023/05/05 08:12:48;;;;;;;11.00;9.55;;;;;;;;;;5031524;28;20424;-81
2023/05/05 08:15:14;;;;;;;10.63;8.48;;;;;;;;;;4998661;28;20430;-82
2023/05/05 08:17:45;;;;;;;10.48;8.73;;;;;;;;;;4999362;28;20448;-81
2023/05/05 08:20:11;;;;;;;11.27;8.70;;;;;;;;;;4999673;28;20494;-81
2023/05/05 08:22:37;;;;;;;10.00;8.75;;;;;;;;;;4998760;28;20413;-81
2023/05/05 08:25:03;;;;;;;11.73;8.20;;;;;;;;;;4999071;28;20410;-81
2023/05/05 08:27:34;;;;;;;11.20;7.32;;;;;;;;;;4998845;28;20460;-81
2023/05/05 08:30:00;;;;;;;8.52;6.70;;;;;;;;;;4999859;28;20426;-81
2023/05/05 08:32:26;;;;;;;10.70;7.93;;;;;;;;;;5031389;28;20405;-81
2023/05/05 08:34:52;;;;;;;10.93;9.30;;;;;;;;;;5031622;28;20512;-81
2023/05/05 08:37:18;;;;;;;9.85;8.25;;;;;;;;;;4998845;28;20540;-81
2023/05/05 08:39:44;;;;;;;10.93;8.87;;;;;;;;;;5032000;28;20414;-81
2023/05/05 08:42:11;;;;;;;10.43;8.10;;;;;;;;;;5031381;28;20430;-81
2023/05/05 08:44:37;;;;;;;10.98;8.43;;;;;;;;;;5002283;28;20512;-81
2023/05/05 08:47:03;;;;;;;10.88;7.80;;;;;;;;;;5001905;28;20424;-81
2023/05/05 08:49:31;;;;;;;10.40;7.33;;;;;;;;;;5002332;28;20460;-81
2023/05/05 08:52:00;;;;;;;8.68;6.55;;;;;;;;;;5035767;28;20425;-81
2023/05/05 08:54:27;;;;;;;11.90;7.17;;;;;;;;;;5035651;28;20180;-81
2023/05/05 08:56:54;;;;;;;10.40;7.28;;;;;;;;;;5002575;28;20424;-81
2023/05/05 08:59:23;;;;;;;9.93;7.40;;;;;;;;;;5001961;28;20398;-81
2023/05/05 09:01:51;;;;;;;8.02;7.22;;;;;;;;;;5034618;28;20406;-81
2023/05/05 09:04:18;;;;;;;8.47;6.50;;;;;;;;;;5043967;28;20404;-84
2023/05/05 09:06:44;;;;;;;7.50;6.10;;;;;;;;;;5009382;28;20416;-81
2023/05/05 09:09:10;;;;;;;7.28;5.35;;;;;;;;;;5038095;28;20420;-82
2023/05/05 09:11:37;;;;;;;7.15;5.15;;;;;;;;;;5034789;28;20416;-81
2023/05/05 09:14:03;;;;;;;8.38;5.80;;;;;;;;;;5021300;28;20503;-81
2023/05/05 09:16:29;;;;;;;9.07;5.35;;;;;;;;;;5037295;28;20481;-81
2023/05/05 09:19:04;;;;;;;6.57;4.30;;;;;;;;;;5037598;28;20418;-81
2023/05/05 09:21:31;;;;;;;6.35;4.55;;;;;;;;;;5028666;28;20503;-81
2023/05/05 09:24:10;;;;;;;6.35;4.55;;;;;;;;;;5037401;28;20408;-81
2023/05/05 09:26:41;;;;;;;5.85;4.20;;;;;;;;;;5021041;28;20518;-81
2023/05/05 09:29:07;;;;;;;4.70;3.72;;;;;;;;;;5037024;28;20404;-81
2023/05/05 09:31:34;;;;;;;4.47;3.45;;;;;;;;;;5020800;28;20504;-81
2023/05/05 09:34:02;;;;;;;4.95;3.13;;;;;;;;;;5020695;28;20450;-81
2023/05/05 09:36:43;;;;;;;9.40;4.20;;;;;;;;;;5037144;28;20545;-81
2023/05/05 09:39:09;;;;;;;5.18;3.53;;;;;;;;;;5036894;28;20465;-81
2023/05/05 09:41:39;;;;;;;6.35;3.75;;;;;;;;;;5037461;28;20413;-81
2023/05/05 09:44:06;;;;;;;8.40;3.58;;;;;;;;;;5036227;28;20451;-81
2023/05/05 09:46:32;;;;;;;8.70;6.35;;;;;;;;;;5035536;28;20420;-81
2023/05/05 09:49:16;;;;;;;7.50;5.13;;;;;;;;;;5019470;28;20414;-81
2023/05/05 09:51:42;;;;;;;8.85;5.90;;;;;;;;;;5036090;28;20411;-81
2023/05/05 09:54:08;;;;;;;7.10;5.60;;;;;;;;;;5016354;28;20414;-81
2023/05/05 09:56:41;;;;;;;7.90;6.82;;;;;;;;;;5031255;28;20501;-81
2023/05/05 09:59:08;;;;;;;6.97;5.50;;;;;;;;;;5021198;28;20470;-81
2023/05/05 10:01:34;;;;;;;7.53;5.38;;;;;;;;;;5036693;28;20405;-81
2023/05/05 10:04:00;;;;;;;8.20;5.50;;;;;;;;;;5012107;28;20581;-81
2023/05/05 10:06:40;;;;;;;7.43;5.30;;;;;;;;;;5020298;28;20414;-81
2023/05/05 10:09:06;;;;;;;7.47;5.78;;;;;;;;;;5036022;28;20459;-81
2023/05/05 10:11:33;;;;;;;6.78;5.32;;;;;;;;;;5036563;28;20403;-81
2023/05/05 10:13:59;;;;;;;8.65;4.20;;;;;;;;;;5020783;28;20192;-80
2023/05/05 10:16:26;;;;;;;6.47;4.55;;;;;;;;;;5020494;28;20443;-81
2023/05/05 10:18:53;;;;;;;7.33;4.83;;;;;;;;;;5036826;28;20459;-81
2023/05/05 10:21:20;;;;;;;4.53;3.67;;;;;;;;;;5006850;28;20418;-81
2023/05/05 10:23:56;;;;;;;5.23;3.83;;;;;;;;;;5048994;28;20420;-82
2023/05/05 10:26:26;;;;;;;4.90;3.78;;;;;;;;;;5035824;28;20438;-81
2023/05/05 10:28:55;;;;;;;5.88;4.10;;;;;;;;;;5036142;28;20463;-81
2023/05/05 10:31:41;;;;;;;5.93;3.60;;;;;;;;;;5035738;28;20423;-81
2023/05/05 10:34:09;;;;;;;6.72;3.83;;;;;;;;;;5036024;28;20423;-80
2023/05/05 10:36:38;;;;;;;6.40;4.43;;;;;;;;;;5035547;28;20440;-81
2023/05/05 10:39:09;;;;;;;7.13;4.68;;;;;;;;;;5035684;28;20511;-81
2023/05/05 10:41:36;;;;;;;7.45;4.80;;;;;;;;;;5035677;28;20416;-81
2023/05/05 10:44:03;;;;;;;8.93;4.78;;;;;;;;;;5035577;28;20423;-81
2023/05/05 10:46:29;;;;;;;6.03;4.63;;;;;;;;;;5019832;28;20411;-81
2023/05/05 10:49:01;;;;;;;6.85;4.97;;;;;;;;;;5036217;28;20432;-81
2023/05/05 10:51:40;;;;;;;8.40;5.32;;;;;;;;;;5035767;28;20406;-81
2023/05/05 10:54:10;;;;;;;8.05;5.32;;;;;;;;;;5035676;28;20407;-81
2023/05/05 10:56:39;;;;;;;6.93;5.10;;;;;;;;;;5035921;28;20423;-81
2023/05/05 10:59:24;;;;;;;8.15;5.97;;;;;;;;;;5035921;28;20408;-81
2023/05/05 11:01:50;;;;;;;8.45;6.32;;;;;;;;;;5035724;28;20400;-81
2023/05/05 11:04:17;;;;;;;9.02;6.75;;;;;;;;;;5035884;28;20415;-81
2023/05/05 11:07:02;;;;;;;9.15;7.00;;;;;;;;;;5035014;28;20419;-81
2023/05/05 11:09:28;;;;;;;7.47;5.53;;;;;;;;;;5035683;28;20392;-81
2023/05/05 11:12:01;;;;;;;8.00;5.60;;;;;;;;;;5019297;28;20495;-81
2023/05/05 11:14:27;;;;;;;5.35;4.50;;;;;;;;;;5035173;28;20412;-81
2023/05/05 11:16:54;;;;;;;7.40;4.53;;;;;;;;;;5018916;28;20411;-81
2023/05/05 11:19:39;;;;;;;8.13;4.13;;;;;;;;;;5019025;28;20466;-81
2023/05/05 11:22:05;;;;;;;5.32;4.25;;;;;;;;;;5035236;28;20414;-81
2023/05/05 11:24:32;;;;;;;5.38;4.60;;;;;;;;;;5019092;28;20452;-81
2023/05/05 11:26:58;;;;;;;6.00;4.97;;;;;;;;;;5018049;28;20424;-82
2023/05/05 11:29:24;;;;;;;6.53;4.70;;;;;;;;;;5035349;28;20470;-82
2023/05/05 11:32:09;;;;;;;7.47;5.25;;;;;;;;;;5035346;28;20411;-82
2023/05/05 11:34:35;;;;;;;6.78;4.47;;;;;;;;;;5033914;28;20444;-82
2023/05/05 11:37:02;;;;;;;6.45;4.32;;;;;;;;;;5034885;28;20431;-83
2023/05/05 11:39:41;;;;;;;4.82;3.25;;;;;;;;;;5034725;28;20416;-82
2023/05/05 11:42:16;;;;;;;6.32;2.90;;;;;;;;;;5052714;28;20426;-82
2023/05/05 11:44:42;;;;;;;6.65;3.20;;;;;;;;;;5035194;28;20411;-82
2023/05/05 11:47:08;;;;;;;6.40;3.40;;;;;;;;;;5018688;28;20451;-83
2023/05/05 11:49:38;;;;;;;5.73;3.90;;;;;;;;;;5034937;28;20443;-83
2023/05/05 11:52:05;;;;;;;5.47;2.00;;;;;;;;;;5034810;28;20424;-83
2023/05/05 11:54:31;;;;;;;4.20;1.10;;;;;;;;;;5018065;28;20447;-83
2023/05/05 11:57:03;;;;;;;2.50;0.80;;;;;;;;;;5034968;28;20469;-83
2023/05/05 11:59:30;;;;;;;1.70;0.90;;;;;;;;;;5036799;28;20420;-83
2023/05/05 12:01:56;;;;;;;2.58;0.90;;;;;;;;;;5018036;28;20411;-84
2023/05/05 12:04:22;;;;;;;1.08;0.77;;;;;;;;;;5034711;28;20491;-84
2023/05/05 12:06:48;;;;;;;1.20;0.90;;;;;;;;;;5011144;28;20452;-83
2023/05/05 12:09:15;;;;;;;2.47;1.00;;;;;;;;;;5015970;28;20184;-84
2023/05/05 12:12:08;;;;;;;2.33;0.93;;;;;;;;;;5031836;28;20509;-83
2023/05/05 12:14:34;;;;;;;1.98;1.00;;;;;;;;;;5014287;28;20421;-84
2023/05/05 12:17:07;;;;;;;3.40;1.50;;;;;;;;;;5035563;28;20439;-83
2023/05/05 12:19:33;;;;;;;2.17;1.10;;;;;;;;;;5038121;28;20491;-84
2023/05/05 12:22:00;;;;;;;2.53;1.30;;;;;;;;;;5039698;28;20172;-84
2023/05/05 12:24:26;;;;;;;2.53;1.20;;;;;;;;;;5038266;28;20415;-84
2023/05/05 12:26:52;;;;;;;2.20;1.30;;;;;;;;;;5022314;28;20211;-84
2023/05/05 12:29:25;;;;;;;3.90;1.30;;;;;;;;;;5037772;28;20187;-84
2023/05/05 12:31:51;;;;;;;1.70;1.13;;;;;;;;;;5036556;28;20264;-84
2023/05/05 12:34:18;;;;;;;1.90;1.23;;;;;;;;;;5012619;28;20269;-84
2023/05/05 12:36:44;;;;;;;2.53;1.37;;;;;;;;;;5034738;28;20421;-85
2023/05/05 12:39:11;;;;;;;3.83;1.52;;;;;;;;;;5009442;28;20470;-86
2023/05/05 12:41:37;;;;;;;2.47;1.40;;;;;;;;;;5012887;28;20184;-85
2023/05/05 12:44:03;;;;;;;4.87;1.40;;;;;;;;;;5034766;28;20186;-85
2023/05/05 12:46:30;;;;;;;2.92;1.52;;;;;;;;;;5010295;28;20470;-85
2023/05/05 12:49:00;;;;;;;5.47;1.60;;;;;;;;;;5035754;28;20179;-85
2023/05/05 12:51:27;;;;;;;2.73;1.47;;;;;;;;;;5035762;28;20219;-85
2023/05/05 12:54:09;;;;;;;3.97;1.63;;;;;;;;;;5018678;28;20185;-85
2023/05/05 12:56:42;;;;;;;4.30;1.60;;;;;;;;;;5038202;28;20207;-83
2023/05/05 12:59:09;;;;;;;2.50;1.27;;;;;;;;;;5038708;28;20212;-83
2023/05/05 13:01:36;;;;;;;2.27;1.50;;;;;;;;;;5038404;28;20191;-83
2023/05/05 13:04:08;;;;;;;3.07;1.50;;;;;;;;;;5038569;28;20179;-83
2023/05/05 13:06:35;;;;;;;2.67;1.33;;;;;;;;;;5038767;28;20187;-83
2023/05/05 13:09:01;;;;;;;2.07;1.40;;;;;;;;;;5038584;28;20184;-84
2023/05/05 13:11:28;;;;;;;2.33;1.30;;;;;;;;;;5021522;28;20231;-83
2023/05/05 13:13:54;;;;;;;1.57;1.40;;;;;;;;;;5021721;28;20284;-84
2023/05/05 13:16:20;;;;;;;3.67;1.10;;;;;;;;;;5037679;28;20204;-83
2023/05/05 13:18:48;;;;;;;3.60;1.40;;;;;;;;;;5037277;28;20207;-82
2023/05/05 13:21:14;;;;;;;2.70;1.30;;;;;;;;;;5035208;28;20270;-82
2023/05/05 13:23:43;;;;;;;2.07;1.60;;;;;;;;;;5019732;28;20235;-82
2023/05/05 13:26:09;;;;;;;4.50;1.77;;;;;;;;;;5021527;28;20190;-82
2023/05/05 13:28:35;;;;;;;4.37;1.57;;;;;;;;;;5036657;28;20256;-80
2023/05/05 13:31:01;;;;;;;2.23;1.60;;;;;;;;;;5021940;28;20239;-80
2023/05/05 13:33:27;;;;;;;2.57;1.80;;;;;;;;;;5038420;28;20183;-80
2023/05/05 13:35:53;;;;;;;3.47;1.90;;;;;;;;;;5038100;28;20207;-80
2023/05/05 13:38:19;;;;;;;8.73;2.10;;;;;;;;;;5021620;28;20228;-80
2023/05/05 13:40:45;;;;;;;2.60;1.90;;;;;;;;;;5021563;28;20192;-81
2023/05/05 13:43:11;;;;;;;2.83;2.17;;;;;;;;;;5021866;28;20176;-81
2023/05/05 13:45:37;;;;;;;3.43;2.30;;;;;;;;;;5038131;28;20188;-81
2023/05/05 13:48:03;;;;;;;2.00;1.70;;;;;;;;;;5021619;28;20212;-81
2023/05/05 13:50:30;;;;;;;3.03;2.60;;;;;;;;;;5021407;28;20317;-80
2023/05/05 13:52:56;;;;;;;3.23;2.37;;;;;;;;;;5021065;28;20303;-80
2023/05/05 13:55:22;;;;;;;3.30;2.80;;;;;;;;;;5036220;28;20208;-80
2023/05/05 13:57:48;;;;;;;3.87;1.80;;;;;;;;;;5037366;28;20172;-80
2023/05/05 14:00:15;;;;;;;3.10;2.13;;;;;;;;;;5021288;28;20233;-79
2023/05/05 14:02:41;;;;;;;2.70;2.43;;;;;;;;;;5021158;28;20192;-82
2023/05/05 14:05:08;;;;;;;2.93;2.63;;;;;;;;;;5037576;28;20184;-80
2023/05/05 14:07:34;;;;;;;4.20;3.00;;;;;;;;;;5020273;28;20431;-81
2023/05/05 14:10:00;;;;;;;3.00;2.70;;;;;;;;;;5037009;28;20183;-80
2023/05/05 14:12:26;;;;;;;5.20;2.93;;;;;;;;;;5036081;28;20198;-81
2023/05/05 14:14:52;;;;;;;4.43;3.53;;;;;;;;;;5037163;28;20329;-85
2023/05/05 14:17:18;;;;;;;5.43;3.30;;;;;;;;;;5017676;28;20232;-86
2023/05/05 14:19:44;;;;;;;3.43;3.00;;;;;;;;;;5037530;28;20322;-85
2023/05/05 14:22:10;;;;;;;4.13;3.23;;;;;;;;;;5037788;28;20176;-85
2023/05/05 14:24:36;;;;;;;4.13;3.50;;;;;;;;;;5037197;28;20191;-83
2023/05/05 14:27:03;;;;;;;4.70;3.47;;;;;;;;;;5019748;28;20195;-82
2023/05/05 14:29:29;;;;;;;3.50;3.00;;;;;;;;;;5037431;28;20211;-82
2023/05/05 14:31:55;;;;;;;4.13;2.93;;;;;;;;;;5037228;28;20182;-83
2023/05/05 14:34:21;;;;;;;4.17;3.00;;;;;;;;;;5020612;28;20176;-83